createdAt,value
2023-03-16T00:01:50.413Z,7.37
2023-03-16T00:04:18.882Z,7.42
2023-03-16T00:06:47.615Z,7.42
2023-03-16T00:09:15.663Z,7.43
2023-03-16T00:11:44.074Z,7.42
2023-03-16T00:14:12.138Z,7.45
2023-03-16T00:16:40.483Z,7.49
2023-03-16T00:19:10.339Z,7.52
2023-03-16T00:21:39.071Z,7.54
2023-03-16T00:24:07.549Z,7.50
2023-03-16T00:26:39.388Z,7.49
2023-03-16T00:29:08.234Z,7.53
2023-03-16T00:31:37.028Z,7.52
2023-03-16T00:34:05.715Z,7.53
2023-03-16T00:36:34.322Z,7.50
2023-03-16T00:39:05.641Z,7.52
2023-03-16T00:41:38.275Z,7.50
2023-03-16T00:44:06.833Z,7.45
2023-03-16T00:46:36.580Z,7.44
2023-03-16T00:49:04.823Z,7.42
2023-03-16T00:51:34.132Z,7.34
2023-03-16T00:54:02.597Z,7.35
2023-03-16T00:56:36.286Z,7.33
2023-03-16T00:59:05.821Z,7.31
2023-03-16T01:01:33.940Z,7.24
2023-03-16T01:04:02.479Z,7.22
2023-03-16T01:06:32.262Z,7.21
2023-03-16T01:09:00.430Z,7.21
2023-03-16T01:11:29.349Z,7.23
2023-03-16T01:13:58.029Z,7.24
2023-03-16T01:16:27.358Z,7.25
2023-03-16T01:18:57.589Z,7.21
2023-03-16T01:21:25.973Z,7.19
2023-03-16T01:23:55.049Z,7.18
2023-03-16T01:26:25.626Z,7.18
2023-03-16T01:28:54.896Z,7.15
2023-03-16T01:31:23.097Z,7.13
2023-03-16T01:33:51.688Z,7.10
2023-03-16T01:36:22.046Z,7.11
2023-03-16T01:38:52.582Z,7.10
2023-03-16T01:41:22.571Z,7.11
2023-03-16T01:43:52.242Z,7.13
2023-03-16T01:46:23.623Z,7.06
2023-03-16T01:48:57.526Z,7.06
2023-03-16T01:51:27.882Z,7.05
2023-03-16T01:53:59.844Z,7.06
2023-03-16T01:56:35.033Z,7.05
2023-03-16T01:59:07.425Z,7.06
2023-03-16T02:01:35.927Z,7.04
2023-03-16T02:04:37.346Z,7.06
2023-03-16T02:07:07.647Z,7.02
2023-03-16T02:09:38.669Z,7.02
2023-03-16T02:12:18.225Z,6.98
2023-03-16T02:14:49.074Z,6.99
2023-03-16T02:17:20.429Z,7.07
2023-03-16T02:20:13.861Z,7.11
2023-03-16T02:22:49.065Z,7.11
2023-03-16T02:25:19.098Z,7.10
2023-03-16T02:28:06.159Z,7.07
2023-03-16T02:30:34.602Z,7.04
2023-03-16T02:33:06.217Z,7.04
2023-03-16T02:35:35.014Z,7.00
2023-03-16T02:38:04.619Z,7.01
2023-03-16T02:40:35.141Z,6.98
2023-03-16T02:43:15.590Z,7.04
2023-03-16T02:45:54.959Z,7.06
2023-03-16T02:48:32.651Z,7.04
2023-03-16T02:51:01.171Z,6.98
2023-03-16T02:53:29.334Z,6.96
2023-03-16T02:55:59.491Z,6.95
2023-03-16T02:58:29.807Z,6.96
2023-03-16T03:00:59.654Z,6.98
2023-03-16T03:03:29.944Z,7.02
2023-03-16T03:05:58.015Z,6.99
2023-03-16T03:08:27.880Z,7.07
2023-03-16T03:10:56.768Z,7.09
2023-03-16T03:13:25.053Z,7.11
2023-03-16T03:15:55.761Z,7.11
2023-03-16T03:18:25.701Z,7.16
2023-03-16T03:20:54.397Z,7.18
2023-03-16T03:23:22.897Z,7.17
2023-03-16T03:25:50.909Z,7.17
2023-03-16T03:28:19.777Z,7.17
2023-03-16T03:30:52.442Z,7.17
2023-03-16T03:33:22.724Z,7.16
2023-03-16T03:35:56.457Z,7.15
2023-03-16T03:38:25.709Z,7.14
2023-03-16T03:40:54.469Z,7.13
2023-03-16T03:43:22.552Z,7.12
2023-03-16T03:45:58.753Z,7.13
2023-03-16T03:48:27.542Z,7.14
2023-03-16T03:50:55.673Z,7.13
2023-03-16T03:53:23.664Z,7.12
2023-03-16T03:55:51.624Z,7.14
2023-03-16T03:58:23.706Z,7.17
2023-03-16T04:00:53.472Z,7.15
2023-03-16T04:03:22.080Z,7.15
2023-03-16T04:05:50.310Z,7.16
2023-03-16T04:08:19.104Z,7.18
2023-03-16T04:10:48.682Z,7.19
2023-03-16T04:13:17.083Z,7.22
2023-03-16T04:15:47.179Z,7.28
2023-03-16T04:18:18.549Z,7.27
2023-03-16T04:20:47.220Z,7.32
2023-03-16T04:23:17.007Z,7.35
2023-03-16T04:25:45.708Z,7.39
2023-03-16T04:28:18.122Z,7.45
2023-03-16T04:30:48.835Z,7.44
2023-03-16T04:33:17.688Z,7.38
2023-03-16T04:35:46.480Z,7.34
2023-03-16T04:38:15.886Z,7.36
2023-03-16T04:40:44.153Z,7.35
2023-03-16T04:43:15.238Z,7.36
2023-03-16T04:45:44.666Z,7.39
2023-03-16T04:48:12.943Z,7.32
2023-03-16T04:50:41.329Z,7.31
2023-03-16T04:53:09.687Z,7.33
2023-03-16T04:55:38.083Z,7.32
2023-03-16T04:58:06.514Z,7.32
2023-03-16T05:00:35.788Z,7.30
2023-03-16T05:03:04.528Z,7.33
2023-03-16T05:05:32.801Z,7.36
2023-03-16T05:08:02.185Z,7.39
2023-03-16T05:10:30.802Z,7.41
2023-03-16T05:13:05.999Z,7.43
2023-03-16T05:15:34.322Z,7.49
2023-03-16T05:18:02.804Z,7.52
2023-03-16T05:20:31.660Z,7.51
2023-03-16T05:22:59.684Z,7.55
2023-03-16T05:25:27.420Z,7.58
2023-03-16T05:27:58.906Z,7.64
2023-03-16T05:30:27.785Z,7.70
2023-03-16T05:32:58.339Z,7.75
2023-03-16T05:35:26.251Z,7.78
2023-03-16T05:37:54.224Z,7.85
2023-03-16T05:40:23.615Z,7.84
2023-03-16T05:42:56.401Z,7.90
2023-03-16T05:45:29.024Z,7.96
2023-03-16T05:47:58.695Z,7.96
2023-03-16T05:50:26.912Z,7.91
2023-03-16T05:52:55.271Z,8.01
2023-03-16T05:55:23.861Z,8.08
2023-03-16T05:57:51.871Z,8.16
2023-03-16T06:00:21.328Z,8.19
2023-03-16T06:02:51.617Z,8.18
2023-03-16T06:05:22.276Z,8.13
2023-03-16T06:07:50.518Z,8.11
2023-03-16T06:10:27.080Z,8.14
2023-03-16T06:12:58.123Z,8.17
2023-03-16T06:15:31.314Z,8.14
2023-03-16T06:18:05.768Z,8.11
2023-03-16T06:20:35.891Z,8.21
2023-03-16T06:23:04.951Z,8.21
2023-03-16T06:25:37.330Z,8.11
2023-03-16T06:28:07.759Z,8.02
2023-03-16T06:30:40.298Z,7.95
2023-03-16T06:33:08.573Z,7.91
2023-03-16T06:35:36.532Z,7.90
2023-03-16T06:38:05.467Z,7.86
2023-03-16T06:40:34.616Z,7.85
2023-03-16T06:43:09.208Z,7.86
2023-03-16T06:45:38.935Z,7.83
2023-03-16T06:48:08.067Z,7.84
2023-03-16T06:50:36.986Z,7.78
2023-03-16T06:53:05.177Z,7.77
2023-03-16T06:55:33.253Z,7.83
2023-03-16T06:58:01.782Z,7.88
2023-03-16T07:00:31.365Z,7.93
2023-03-16T07:03:01.007Z,7.92
2023-03-16T07:05:29.244Z,7.93
2023-03-16T07:08:04.632Z,8.08
2023-03-16T07:10:33.325Z,8.13
2023-03-16T07:13:01.220Z,8.20
2023-03-16T07:15:35.312Z,8.33
2023-03-16T07:18:04.300Z,8.42
2023-03-16T07:20:33.555Z,8.44
2023-03-16T07:23:03.051Z,8.36
2023-03-16T07:25:32.072Z,8.35
2023-03-16T07:28:00.121Z,8.24
2023-03-16T07:30:29.784Z,8.25
2023-03-16T07:32:58.543Z,8.30
2023-03-16T07:35:26.912Z,8.29
2023-03-16T07:37:54.919Z,8.41
2023-03-16T07:40:24.524Z,8.40
2023-03-16T07:42:52.466Z,8.36
2023-03-16T07:45:20.470Z,8.40
2023-03-16T07:47:49.738Z,8.43
2023-03-16T07:50:19.646Z,8.48
2023-03-16T07:52:47.534Z,8.48
2023-03-16T07:55:16.401Z,8.46
2023-03-16T07:57:48.184Z,8.46
2023-03-16T08:00:24.393Z,8.48
2023-03-16T08:02:54.211Z,8.55
2023-03-16T08:05:28.075Z,8.49
2023-03-16T08:07:57.660Z,8.47
2023-03-16T08:10:26.066Z,8.46
2023-03-16T08:13:01.599Z,8.48
2023-03-16T08:15:30.178Z,8.49
2023-03-16T08:18:02.967Z,8.52
2023-03-16T08:20:35.792Z,8.51
2023-03-16T08:23:04.384Z,8.48
2023-03-16T08:25:32.486Z,8.45
2023-03-16T08:28:02.679Z,8.49
2023-03-16T08:30:31.870Z,8.41
2023-03-16T08:33:03.556Z,8.47
2023-03-16T08:35:32.142Z,8.52
2023-03-16T08:38:02.459Z,8.60
2023-03-16T08:40:31.711Z,8.64
2023-03-16T08:43:02.379Z,8.69
2023-03-16T08:45:33.989Z,8.77
2023-03-16T08:48:02.979Z,8.79
2023-03-16T08:50:44.482Z,8.85
2023-03-16T08:53:14.322Z,8.92
2023-03-16T08:55:42.488Z,9.00
2023-03-16T08:58:11.616Z,9.03
2023-03-16T09:00:41.863Z,8.96
2023-03-16T09:03:10.601Z,8.91
2023-03-16T09:05:43.588Z,8.89
2023-03-16T09:08:11.525Z,8.91
2023-03-16T09:10:41.267Z,8.90
2023-03-16T09:13:09.828Z,8.97
2023-03-16T09:15:39.224Z,9.07
2023-03-16T09:18:10.775Z,9.10
2023-03-16T09:20:38.912Z,9.10
2023-03-16T09:23:08.740Z,9.19
2023-03-16T09:25:40.831Z,9.27
2023-03-16T09:28:09.175Z,9.35
2023-03-16T09:30:38.941Z,9.37
2023-03-16T09:33:08.229Z,9.41
2023-03-16T09:35:37.647Z,9.49
2023-03-16T09:38:07.695Z,9.55
2023-03-16T09:40:37.910Z,9.75
2023-03-16T09:43:36.087Z,9.85
2023-03-16T09:46:11.117Z,10.12
2023-03-16T09:48:41.589Z,10.34
2023-03-16T09:51:31.520Z,10.66
2023-03-16T09:54:04.472Z,10.51
2023-03-16T09:56:40.235Z,10.64
2023-03-16T09:59:15.690Z,10.63
2023-03-16T10:02:00.041Z,10.76
2023-03-16T10:04:48.619Z,11.10
2023-03-16T10:07:38.609Z,11.22
2023-03-16T10:10:11.304Z,11.28
2023-03-16T10:12:51.045Z,11.42
2023-03-16T10:15:25.018Z,11.69
2023-03-16T10:18:13.544Z,11.53
2023-03-16T10:20:42.732Z,11.47
2023-03-16T10:23:19.193Z,11.37
2023-03-16T10:26:02.493Z,11.36
2023-03-16T10:28:32.483Z,11.31
2023-03-16T10:31:05.835Z,11.36
2023-03-16T10:33:40.137Z,11.58
2023-03-16T10:36:14.297Z,11.90
2023-03-16T10:38:51.548Z,11.93
2023-03-16T10:41:21.825Z,12.14
2023-03-16T10:44:06.460Z,12.13
2023-03-16T10:46:42.146Z,12.11
2023-03-16T10:49:27.701Z,11.93
2023-03-16T10:51:59.981Z,11.68
2023-03-16T10:54:37.890Z,11.46
2023-03-16T10:57:23.104Z,11.16
2023-03-16T10:59:53.362Z,10.97
2023-03-16T11:02:24.127Z,11.05
2023-03-16T11:04:53.418Z,11.19
2023-03-16T11:07:24.731Z,11.20
2023-03-16T11:09:53.245Z,11.24
2023-03-16T11:12:31.081Z,11.33
2023-03-16T11:15:23.631Z,11.57
2023-03-16T11:17:55.046Z,11.83
2023-03-16T11:20:26.879Z,11.93
2023-03-16T11:23:04.344Z,12.07
2023-03-16T11:25:41.912Z,12.10
2023-03-16T11:28:17.333Z,12.10
2023-03-16T11:30:57.372Z,12.20
2023-03-16T11:33:27.570Z,12.38
2023-03-16T11:36:28.226Z,12.61
2023-03-16T11:39:15.878Z,12.97
2023-03-16T11:41:58.482Z,13.29
2023-03-16T11:44:34.470Z,13.15
2023-03-16T11:47:16.717Z,13.24
2023-03-16T11:50:04.138Z,13.12
2023-03-16T11:53:10.142Z,13.13
2023-03-16T11:55:47.150Z,13.25
2023-03-16T11:58:31.946Z,13.35
2023-03-16T12:01:27.289Z,13.68
2023-03-16T12:04:30.812Z,13.97
2023-03-16T12:07:26.576Z,14.00
2023-03-16T12:10:04.754Z,14.29
2023-03-16T12:12:43.611Z,14.51
2023-03-16T12:15:44.317Z,14.69
2023-03-16T12:18:21.731Z,14.27
2023-03-16T12:20:58.045Z,14.04
2023-03-16T12:23:44.596Z,13.63
2023-03-16T12:26:13.128Z,13.65
2023-03-16T12:28:43.051Z,13.84
2023-03-16T12:31:21.817Z,13.75
2023-03-16T12:34:04.705Z,13.71
2023-03-16T12:36:55.225Z,13.79
2023-03-16T12:40:11.425Z,13.77
2023-03-16T12:43:00.343Z,13.84
2023-03-16T12:45:48.702Z,13.78
2023-03-16T12:48:37.815Z,13.57
2023-03-16T12:51:06.432Z,13.28
2023-03-16T12:53:47.078Z,13.09
2023-03-16T12:56:20.327Z,12.93
2023-03-16T12:58:50.579Z,12.78
2023-03-16T13:01:20.214Z,12.72
2023-03-16T13:04:02.345Z,12.56
2023-03-16T13:06:36.241Z,12.36
2023-03-16T13:09:06.672Z,12.13
2023-03-16T13:11:50.487Z,11.88
2023-03-16T13:14:43.144Z,11.78
2023-03-16T13:17:18.229Z,11.71
2023-03-16T13:20:07.955Z,11.63
2023-03-16T13:22:50.254Z,11.58
2023-03-16T13:25:40.417Z,11.52
2023-03-16T13:28:15.321Z,11.41
2023-03-16T13:30:52.888Z,11.61
2023-03-16T13:33:26.663Z,11.66
2023-03-16T13:35:57.970Z,11.74
2023-03-16T13:38:30.744Z,11.72
2023-03-16T13:41:04.801Z,11.70
2023-03-16T13:43:40.272Z,11.70
2023-03-16T13:46:18.826Z,11.65
2023-03-16T13:48:50.975Z,11.62
2023-03-16T13:51:23.092Z,11.50
2023-03-16T13:53:51.432Z,11.48
2023-03-16T13:56:23.122Z,11.46
2023-03-16T13:58:54.577Z,11.45
2023-03-16T14:01:25.256Z,11.45
2023-03-16T14:04:14.059Z,11.42
2023-03-16T14:06:53.806Z,11.46
2023-03-16T14:09:26.245Z,11.51
2023-03-16T14:11:55.216Z,11.52
2023-03-16T14:14:29.708Z,11.59
2023-03-16T14:17:11.497Z,11.60
2023-03-16T14:19:59.547Z,11.56
2023-03-16T14:22:37.372Z,11.46
2023-03-16T14:25:07.056Z,11.34
2023-03-16T14:27:41.354Z,11.35
2023-03-16T14:30:26.187Z,11.35
2023-03-16T14:33:00.307Z,11.35
2023-03-16T14:35:32.080Z,11.34
2023-03-16T14:38:33.280Z,11.31
2023-03-16T14:41:22.620Z,11.22
2023-03-16T14:44:04.725Z,11.26
2023-03-16T14:46:42.739Z,11.23
2023-03-16T14:49:36.154Z,11.21
2023-03-16T14:52:37.089Z,11.23
2023-03-16T14:55:14.969Z,11.22
2023-03-16T14:57:45.529Z,11.22
2023-03-16T15:00:15.888Z,11.22
2023-03-16T15:02:46.295Z,11.26
2023-03-16T15:05:39.794Z,11.22
2023-03-16T15:08:22.639Z,11.20
2023-03-16T15:10:55.434Z,11.21
2023-03-16T15:13:42.516Z,11.21
2023-03-16T15:16:13.092Z,11.21
2023-03-16T15:18:42.969Z,11.24
2023-03-16T15:21:18.984Z,11.28
2023-03-16T15:23:47.856Z,11.29
2023-03-16T15:26:19.049Z,11.32
2023-03-16T15:28:47.074Z,11.33
2023-03-16T15:31:15.279Z,11.34
2023-03-16T15:33:45.613Z,11.32
2023-03-16T15:36:23.216Z,11.28
2023-03-16T15:38:54.706Z,11.30
2023-03-16T15:41:24.921Z,11.29
2023-03-16T15:44:01.109Z,11.28
2023-03-16T15:46:29.425Z,11.22
2023-03-16T15:48:59.637Z,11.24
2023-03-16T15:51:30.627Z,11.20
2023-03-16T15:54:07.350Z,11.19
2023-03-16T15:56:51.013Z,11.16
2023-03-16T15:59:27.492Z,11.12
2023-03-16T16:01:55.342Z,11.07
2023-03-16T16:04:25.258Z,11.04
2023-03-16T16:06:58.152Z,11.00
2023-03-16T16:09:29.173Z,10.95
2023-03-16T16:11:57.521Z,10.85
2023-03-16T16:14:29.696Z,10.84
2023-03-16T16:16:57.622Z,10.80
2023-03-16T16:19:25.990Z,10.77
2023-03-16T16:21:55.548Z,10.73
2023-03-16T16:24:25.654Z,10.66
2023-03-16T16:26:55.762Z,10.62
2023-03-16T16:29:28.109Z,10.62
2023-03-16T16:31:56.780Z,10.61
2023-03-16T16:34:27.535Z,10.59
2023-03-16T16:36:57.756Z,10.56
2023-03-16T16:39:26.133Z,10.55
2023-03-16T16:41:57.054Z,10.55
2023-03-16T16:44:31.384Z,10.54
2023-03-16T16:47:19.780Z,10.52
2023-03-16T16:49:49.326Z,10.53
2023-03-16T16:52:19.193Z,10.55
2023-03-16T16:54:48.601Z,10.53
2023-03-16T16:57:19.040Z,10.49
2023-03-16T16:59:48.439Z,10.50
2023-03-16T17:02:32.345Z,10.52
2023-03-16T17:05:02.090Z,10.53
2023-03-16T17:07:34.729Z,10.53
2023-03-16T17:10:05.896Z,10.55
2023-03-16T17:12:58.703Z,10.49
2023-03-16T17:15:30.137Z,10.49
2023-03-16T17:18:05.734Z,10.46
2023-03-16T17:20:34.807Z,10.44
2023-03-16T17:23:03.578Z,10.41
2023-03-16T17:25:32.977Z,10.42
2023-03-16T17:28:04.373Z,10.41
2023-03-16T17:30:32.796Z,10.39
2023-03-16T17:33:13.493Z,10.38
2023-03-16T17:35:41.980Z,10.35
2023-03-16T17:38:25.138Z,10.33
2023-03-16T17:40:53.884Z,10.25
2023-03-16T17:43:25.918Z,10.24
2023-03-16T17:45:54.221Z,10.23
2023-03-16T17:48:24.769Z,10.20
2023-03-16T17:50:54.815Z,10.19
2023-03-16T17:53:23.480Z,10.18
2023-03-16T17:55:53.211Z,10.15
2023-03-16T17:58:27.957Z,10.15
2023-03-16T18:00:56.661Z,10.11
2023-03-16T18:03:28.566Z,10.12
2023-03-16T18:05:58.165Z,10.11
2023-03-16T18:08:31.141Z,10.10
2023-03-16T18:11:04.091Z,10.05
2023-03-16T18:13:37.772Z,10.04
2023-03-16T18:16:07.899Z,9.99
2023-03-16T18:18:41.960Z,10.00
2023-03-16T18:21:22.342Z,9.99
2023-03-16T18:23:52.587Z,9.96
2023-03-16T18:26:24.840Z,9.94
2023-03-16T18:28:54.205Z,9.91
2023-03-16T18:31:26.678Z,9.89
2023-03-16T18:33:57.573Z,9.89
2023-03-16T18:36:38.035Z,9.87
2023-03-16T18:39:18.261Z,9.83
2023-03-16T18:41:50.169Z,9.81
2023-03-16T18:44:24.101Z,9.79
2023-03-16T18:47:02.006Z,9.79
2023-03-16T18:49:36.324Z,9.80
2023-03-16T18:52:07.618Z,9.81
2023-03-16T18:54:36.637Z,9.80
2023-03-16T18:57:21.784Z,9.78
2023-03-16T18:59:50.954Z,9.79
2023-03-16T19:02:49.394Z,9.80
2023-03-16T19:05:19.946Z,9.79
2023-03-16T19:07:50.865Z,9.76
2023-03-16T19:10:43.235Z,9.78
2023-03-16T19:13:17.509Z,9.74
2023-03-16T19:15:46.136Z,9.73
2023-03-16T19:18:20.728Z,9.78
2023-03-16T19:20:50.592Z,9.77
2023-03-16T19:23:33.678Z,9.80
2023-03-16T19:26:07.861Z,9.79
2023-03-16T19:28:43.839Z,9.80
2023-03-16T19:31:20.448Z,9.81
2023-03-16T19:33:49.524Z,9.75
2023-03-16T19:36:22.261Z,9.76
2023-03-16T19:38:51.396Z,9.77
2023-03-16T19:41:24.244Z,9.77
2023-03-16T19:43:54.170Z,9.67
2023-03-16T19:46:22.880Z,9.69
2023-03-16T19:48:51.208Z,9.73
2023-03-16T19:51:20.265Z,9.73
2023-03-16T19:54:02.441Z,9.72
2023-03-16T19:56:33.316Z,9.69
2023-03-16T19:59:01.774Z,9.75
2023-03-16T20:01:33.153Z,9.75
2023-03-16T20:04:04.608Z,9.79
2023-03-16T20:06:37.940Z,9.77
2023-03-16T20:09:10.907Z,9.76
2023-03-16T20:11:42.302Z,9.74
2023-03-16T20:14:33.761Z,9.77
2023-03-16T20:17:02.709Z,9.56
2023-03-16T20:19:32.337Z,9.53
2023-03-16T20:22:03.778Z,9.42
2023-03-16T20:24:35.744Z,9.44
2023-03-16T20:27:06.142Z,9.46
2023-03-16T20:29:34.345Z,9.47
2023-03-16T20:32:04.064Z,9.42
2023-03-16T20:34:33.189Z,9.38
2023-03-16T20:37:01.986Z,9.41
2023-03-16T20:39:30.684Z,9.34
2023-03-16T20:41:59.914Z,9.33
2023-03-16T20:44:31.512Z,9.34
2023-03-16T20:47:02.179Z,9.29
2023-03-16T20:49:33.493Z,9.32
2023-03-16T20:52:17.871Z,9.31
2023-03-16T20:54:46.582Z,9.28
2023-03-16T20:57:21.746Z,9.32
2023-03-16T20:59:52.229Z,9.34
2023-03-16T21:02:32.518Z,9.33
2023-03-16T21:05:01.891Z,9.30
2023-03-16T21:07:31.034Z,9.31
2023-03-16T21:09:59.382Z,9.36
2023-03-16T21:12:31.432Z,9.39
2023-03-16T21:15:04.198Z,9.38
2023-03-16T21:17:38.817Z,9.29
2023-03-16T21:20:19.708Z,9.28
2023-03-16T21:22:50.598Z,9.30
2023-03-16T21:25:31.348Z,9.34
2023-03-16T21:28:02.926Z,9.36
2023-03-16T21:30:47.593Z,9.36
2023-03-16T21:33:24.327Z,9.38
2023-03-16T21:35:52.637Z,9.37
2023-03-16T21:38:21.748Z,9.37
2023-03-16T21:40:50.370Z,9.38
2023-03-16T21:43:21.000Z,9.40
2023-03-16T21:45:49.967Z,9.39
2023-03-16T21:48:26.203Z,9.39
2023-03-16T21:50:55.646Z,9.40
2023-03-16T21:53:27.466Z,9.40
2023-03-16T21:56:00.616Z,9.41
2023-03-16T21:58:29.345Z,9.40
2023-03-16T22:00:58.710Z,9.41
2023-03-16T22:03:47.936Z,9.40
2023-03-16T22:06:19.194Z,9.40
2023-03-16T22:08:47.976Z,9.38
2023-03-16T22:11:18.930Z,9.38
2023-03-16T22:13:47.676Z,9.39
2023-03-16T22:16:19.192Z,9.39
2023-03-16T22:18:49.268Z,9.41
2023-03-16T22:21:27.688Z,9.40
2023-03-16T22:24:03.221Z,9.40
2023-03-16T22:26:32.569Z,9.41
2023-03-16T22:29:35.930Z,9.42
2023-03-16T22:32:08.147Z,9.42
2023-03-16T22:35:04.149Z,9.43
2023-03-16T22:37:32.865Z,9.44
2023-03-16T22:40:02.031Z,9.48
2023-03-16T22:42:34.216Z,9.45
2023-03-16T22:45:04.296Z,9.43
2023-03-16T22:47:37.188Z,9.42
2023-03-16T22:50:07.057Z,9.45
2023-03-16T22:52:38.126Z,9.36
2023-03-16T22:55:09.839Z,9.40
2023-03-16T22:57:40.110Z,9.40
2023-03-16T23:00:12.317Z,9.35
2023-03-16T23:02:41.242Z,9.37
2023-03-16T23:05:21.312Z,9.40
2023-03-16T23:07:52.623Z,9.42
2023-03-16T23:10:24.216Z,9.41
2023-03-16T23:13:02.065Z,9.41
2023-03-16T23:15:31.991Z,9.42
2023-03-16T23:18:00.793Z,9.40
2023-03-16T23:20:33.186Z,9.40
2023-03-16T23:23:02.128Z,9.34
2023-03-16T23:25:33.156Z,9.38
2023-03-16T23:28:03.089Z,9.36
2023-03-16T23:30:31.944Z,9.38
2023-03-16T23:33:01.876Z,9.34
2023-03-16T23:35:31.756Z,9.34
2023-03-16T23:38:01.086Z,9.37
2023-03-16T23:40:32.887Z,9.36
2023-03-16T23:43:03.578Z,9.36
2023-03-16T23:45:42.870Z,9.38
2023-03-16T23:48:19.643Z,9.30
2023-03-16T23:50:52.649Z,9.31
2023-03-16T23:53:24.367Z,9.39
2023-03-16T23:55:53.091Z,9.42
2023-03-16T23:58:21.527Z,9.46
